Airfield :
LOGIN :

Register | Disclaimer

   EN    FR    IT 

 










Legend :    VFR   Marginal VFR   IFR   Intensive IFR   Very Intensive IFR
Visi :
Ceiling :
>= 8 km
>= 3000ft
5 to 8 km
1000 to 3000 ft
1500m to 5 km
500 to 1000 ft
800 to 1500m
200 to 500 ft
< 800m
< 200 ft
Symbols :   Thunderstorms  Fog  Heavy snow  Heavy precipitations  Wind > 20 kt
SIGMETs :     Misc.  Thunderstorms  Icing  Turbulence  Mountain Waves  Volcanic Ashes







- Airport Elevation : 187 ft


LPMR - Monte Real Air Base

CURRENT METAR :
  • 170600Z 01010KT 9999 BKN004 BKN008 19/17 Q1021

EXPIRED METARs :
  • 170500Z 36008KT 9999 BKN004 19/17 Q1021

TAF TAF LPMR
Valid from the 17 at 06:00 until the 18 at 06:00 UTC


170501Z 1706/1806 36005KT 9999 BKN004
BECMG 1708/1710 35012KT SCT006
PROB40
TEMPO 1708/1712 BKN004
TEMPO 1712/1719 34012G22KT
BECMG 1721/1723 36008KT BKN006
PROB40 1800/1806 0300 FG BKN002
No reported NOTAMs for that airfield.



MET'MAP, your aeronautical weather chart ! - Copyright ORBIFLY December 2007 - Disclaimer

ORBIFLY MET'MAP TEAM :

Programming & Development : Alexandra Zaïnal
Concept & Development : Baudouin d'Aumeries
Co-Development & Prog : Marc-Olivier Méhu
Technical & hardware support : Manuel Goepfert

Contact : metmap@orbifly.com




SOURCES & CREDITS :

   NOAA